Chesaning, Michigan
Current Conditions -  °F | °C
As of 4:34 PM on Friday 31 Oct 2014 (Local Time) from KRNP Reporting Station
Light Snow Light Snow  
Wind Chill: 23°   Ceiling: 1000
Heat Index: 33°   Visibility: 2mi
Dew Point: 33°   Wind: 17mph
Humidity: 98%   Direction: 360°N
Pressure: 30.04"   Gusts: 28mph
Location:  43.18°N, 84.11°W
Report Text: KRNP 312034Z AUTO 36015G24KT 2SM -SN BKN010 OVC016 01/01 A3004 RMK AO2 T00080005
Loading
Personal Weather Stations






























Interactive Weather Map
Tropical Storm Tracking
New forecast layout! Learn more

10-Day Weather Forecast

Advertisements
Track Severe Weather on mobile